createdAt,value
2023-04-12T00:00:43.053Z,8.96
2023-04-12T00:03:10.299Z,8.61
2023-04-12T00:04:52.095Z,8.61
2023-04-12T00:05:37.491Z,8.72
2023-04-12T00:08:05.034Z,8.47
2023-04-12T00:09:52.059Z,8.47
2023-04-12T00:10:31.803Z,8.65
2023-04-12T00:12:58.148Z,8.25
2023-04-12T00:14:52.024Z,8.25
2023-04-12T00:15:24.571Z,8.72
2023-04-12T00:17:51.204Z,8.69
2023-04-12T00:19:52.013Z,8.69
2023-04-12T00:20:18.213Z,8.72
2023-04-12T00:22:45.016Z,8.41
2023-04-12T00:24:52.114Z,8.41
2023-04-12T00:25:11.487Z,8.55
2023-04-12T00:27:37.978Z,8.64
2023-04-12T00:29:52.014Z,8.64
2023-04-12T00:30:04.950Z,8.34
2023-04-12T00:32:31.546Z,8.60
2023-04-12T00:34:52.017Z,8.60
2023-04-12T00:34:57.915Z,8.41
2023-04-12T00:37:24.377Z,8.55
2023-04-12T00:39:50.844Z,8.41
2023-04-12T00:39:52.013Z,8.41
2023-04-12T00:42:17.274Z,8.59
2023-04-12T00:44:43.602Z,8.10
2023-04-12T00:44:52.034Z,8.10
2023-04-12T00:47:09.914Z,7.87
2023-04-12T00:49:36.420Z,8.33
2023-04-12T00:49:52.020Z,8.33
2023-04-12T00:52:08.678Z,8.05
2023-04-12T00:54:35.634Z,8.52
2023-04-12T00:54:52.009Z,8.52
2023-04-12T00:57:02.812Z,8.43
2023-04-12T00:59:29.660Z,8.46
2023-04-12T00:59:52.035Z,8.46
2023-04-12T01:01:56.873Z,8.05
2023-04-12T01:04:26.270Z,8.45
2023-04-12T01:04:52.006Z,8.45
2023-04-12T01:07:05.447Z,8.43
2023-04-12T01:09:47.106Z,8.23
2023-04-12T01:09:52.055Z,8.23
2023-04-12T01:12:28.737Z,8.39
2023-04-12T01:14:52.037Z,8.39
2023-04-12T01:15:03.319Z,8.13
2023-04-12T01:17:37.808Z,8.13
2023-04-12T01:19:52.033Z,8.13
2023-04-12T01:20:17.166Z,8.00
2023-04-12T01:23:28.343Z,8.27
2023-04-12T01:24:52.105Z,8.27
2023-04-12T01:26:21.737Z,8.18
2023-04-12T01:28:53.095Z,8.21
2023-04-12T01:29:52.050Z,8.21
2023-04-12T01:31:21.454Z,8.17
2023-04-12T01:33:51.810Z,7.81
2023-04-12T01:34:52.036Z,7.81
2023-04-12T01:36:22.128Z,7.71
2023-04-12T01:38:49.761Z,7.97
2023-04-12T01:39:52.042Z,7.97
2023-04-12T01:41:16.283Z,8.00
2023-04-12T01:43:47.283Z,7.14
2023-04-12T01:44:52.021Z,7.14
2023-04-12T01:46:18.844Z,7.74
2023-04-12T01:48:52.694Z,7.64
2023-04-12T01:49:52.014Z,7.64
2023-04-12T01:51:34.340Z,7.75
2023-04-12T01:54:11.176Z,7.68
2023-04-12T01:54:52.033Z,7.68
2023-04-12T01:56:41.530Z,7.78
2023-04-12T01:59:11.016Z,7.78
2023-04-12T01:59:52.006Z,7.78
2023-04-12T02:01:37.529Z,7.56
2023-04-12T02:04:05.148Z,6.95
2023-04-12T02:04:52.010Z,6.95
2023-04-12T02:06:33.747Z,6.98
2023-04-12T02:09:02.243Z,7.65
2023-04-12T02:09:52.018Z,7.65
2023-04-12T02:11:29.259Z,7.51
2023-04-12T02:13:55.937Z,7.63
2023-04-12T02:14:52.080Z,7.63
2023-04-12T02:16:23.128Z,7.20
2023-04-12T02:18:52.382Z,7.50
2023-04-12T02:19:52.038Z,7.50
2023-04-12T02:21:18.934Z,7.40
2023-04-12T02:23:45.275Z,7.19
2023-04-12T02:24:52.056Z,7.19
2023-04-12T02:26:11.815Z,7.58
2023-04-12T02:28:38.965Z,7.59
2023-04-12T02:29:52.005Z,7.59
2023-04-12T02:31:06.708Z,7.59
2023-04-12T02:33:33.227Z,6.95
2023-04-12T02:34:52.032Z,6.95
2023-04-12T02:36:02.466Z,7.61
2023-04-12T02:38:29.271Z,7.60
2023-04-12T02:39:52.025Z,7.60
2023-04-12T02:40:58.069Z,7.52
2023-04-12T02:43:24.474Z,7.51
2023-04-12T02:44:52.076Z,7.51
2023-04-12T02:45:51.136Z,7.39
2023-04-12T02:48:17.625Z,7.44
2023-04-12T02:49:52.015Z,7.44
2023-04-12T02:50:43.929Z,7.35
2023-04-12T02:53:10.450Z,7.44
2023-04-12T02:54:52.022Z,7.44
2023-04-12T02:55:38.042Z,7.42
2023-04-12T02:58:04.477Z,7.28
2023-04-12T02:59:51.992Z,7.28
2023-04-12T03:00:30.975Z,7.51
2023-04-12T03:02:58.944Z,6.36
2023-04-12T03:04:52.037Z,6.36
2023-04-12T03:05:25.968Z,6.87
2023-04-12T03:07:52.390Z,7.02
2023-04-12T03:09:52.029Z,7.02
2023-04-12T03:10:18.960Z,7.45
2023-04-12T03:12:45.318Z,7.45
2023-04-12T03:14:52.055Z,7.45
2023-04-12T03:15:11.830Z,7.35
2023-04-12T03:17:38.254Z,7.31
2023-04-12T03:19:52.034Z,7.31
2023-04-12T03:20:10.609Z,7.44
2023-04-12T03:22:37.725Z,7.29
2023-04-12T03:24:54.105Z,7.29
2023-04-12T03:25:05.116Z,7.14
2023-04-12T03:27:31.642Z,6.18
2023-04-12T03:29:52.024Z,6.18
2023-04-12T03:29:58.210Z,7.41
2023-04-12T03:32:25.180Z,7.41
2023-04-12T03:34:51.557Z,7.23
2023-04-12T03:34:52.013Z,7.23
2023-04-12T03:37:18.294Z,6.96
2023-04-12T03:39:48.135Z,7.05
2023-04-12T03:39:51.997Z,7.05
2023-04-12T03:42:29.435Z,6.77
2023-04-12T03:44:52.010Z,6.77
2023-04-12T03:44:58.579Z,6.75
2023-04-12T03:47:25.090Z,7.31
2023-04-12T03:50:09.832Z,7.28
2023-04-12T03:50:12.535Z,7.28
2023-04-12T03:52:37.998Z,6.98
2023-04-12T03:54:52.030Z,6.98
2023-04-12T03:55:06.028Z,7.12
2023-04-12T03:57:32.438Z,6.79
2023-04-12T03:59:52.052Z,6.79
2023-04-12T03:59:58.836Z,6.97
2023-04-12T04:02:25.468Z,6.86
2023-04-12T04:04:52.185Z,6.67
2023-04-12T04:04:52.419Z,6.67
2023-04-12T04:07:18.598Z,6.07
2023-04-12T04:09:45.282Z,7.24
2023-04-12T04:09:52.029Z,7.24
2023-04-12T04:12:11.818Z,7.21
2023-04-12T04:14:38.178Z,6.78
2023-04-12T04:14:52.049Z,6.78
2023-04-12T04:17:04.540Z,7.21
2023-04-12T04:19:31.088Z,7.28
2023-04-12T04:19:52.006Z,7.28
2023-04-12T04:21:57.587Z,7.26
2023-04-12T04:24:25.105Z,7.06
2023-04-12T04:24:52.036Z,7.06
2023-04-12T04:26:54.193Z,6.74
2023-04-12T04:29:20.973Z,7.30
2023-04-12T04:29:52.020Z,7.30
2023-04-12T04:31:47.559Z,7.28
2023-04-12T04:34:14.123Z,7.28
2023-04-12T04:34:51.998Z,7.28
2023-04-12T04:36:41.539Z,7.18
2023-04-12T04:39:08.387Z,6.63
2023-04-12T04:39:52.013Z,6.63
2023-04-12T04:41:39.321Z,7.13
2023-04-12T04:44:09.282Z,6.96
2023-04-12T04:44:52.027Z,6.96
2023-04-12T04:46:37.797Z,7.03
2023-04-12T04:49:05.335Z,7.21
2023-04-12T04:49:52.057Z,7.21
2023-04-12T04:51:32.499Z,7.10
2023-04-12T04:54:00.856Z,7.05
2023-04-12T04:54:52.017Z,7.05
2023-04-12T04:56:27.213Z,7.17
2023-04-12T04:58:56.313Z,6.64
2023-04-12T04:59:52.056Z,6.64
2023-04-12T05:01:28.032Z,6.91
2023-04-12T05:03:55.671Z,6.75
2023-04-12T05:04:52.039Z,6.75
2023-04-12T05:06:22.707Z,7.14
2023-04-12T05:08:49.025Z,6.82
2023-04-12T05:09:52.030Z,6.82
2023-04-12T05:11:15.392Z,6.83
2023-04-12T05:13:41.828Z,7.00
2023-04-12T05:14:52.085Z,7.00
2023-04-12T05:16:08.986Z,6.98
2023-04-12T05:18:35.851Z,7.17
2023-04-12T05:19:51.998Z,7.17
2023-04-12T05:21:03.948Z,7.13
2023-04-12T05:23:32.781Z,7.19
2023-04-12T05:24:52.014Z,7.19
2023-04-12T05:25:59.335Z,7.17
2023-04-12T05:28:25.726Z,6.86
2023-04-12T05:29:52.124Z,6.86
2023-04-12T05:30:52.223Z,6.28
2023-04-12T05:33:18.721Z,7.27
2023-04-12T05:34:52.017Z,7.27
2023-04-12T05:35:45.295Z,6.75
2023-04-12T05:38:11.723Z,6.27
2023-04-12T05:39:52.037Z,6.27
2023-04-12T05:40:38.696Z,6.15
2023-04-12T05:43:05.072Z,7.25
2023-04-12T05:44:52.080Z,7.25
2023-04-12T05:45:31.508Z,6.10
2023-04-12T05:47:57.968Z,6.81
2023-04-12T05:49:52.026Z,6.81
2023-04-12T05:50:24.397Z,7.28
2023-04-12T05:52:51.214Z,6.95
2023-04-12T05:54:52.021Z,6.95
2023-04-12T05:55:18.420Z,7.29
2023-04-12T05:57:46.739Z,7.23
2023-04-12T05:59:52.022Z,7.23
2023-04-12T06:00:17.010Z,7.25
2023-04-12T06:02:45.042Z,7.36
2023-04-12T06:04:52.242Z,7.36
2023-04-12T06:05:13.125Z,7.38
2023-04-12T06:07:42.003Z,7.42
2023-04-12T06:09:52.018Z,7.42
2023-04-12T06:10:09.936Z,7.05
2023-04-12T06:12:36.390Z,7.45
2023-04-12T06:14:52.044Z,7.45
2023-04-12T06:15:02.765Z,7.48
2023-04-12T06:17:29.155Z,7.24
2023-04-12T06:19:52.030Z,7.24
2023-04-12T06:19:55.780Z,7.49
2023-04-12T06:22:22.225Z,7.46
2023-04-12T06:24:48.615Z,7.55
2023-04-12T06:24:52.031Z,7.55
2023-04-12T06:27:14.964Z,7.11
2023-04-12T06:29:41.299Z,7.61
2023-04-12T06:29:52.057Z,7.61
2023-04-12T06:32:07.695Z,7.58
2023-04-12T06:34:34.832Z,7.25
2023-04-12T06:34:52.045Z,7.25
2023-04-12T06:37:01.381Z,7.38
2023-04-12T06:39:27.726Z,7.70
2023-04-12T06:39:52.020Z,7.70
2023-04-12T06:41:54.186Z,7.77
2023-04-12T06:44:20.596Z,7.72
2023-04-12T06:44:52.014Z,7.72
2023-04-12T06:46:47.063Z,7.77
2023-04-12T06:49:13.441Z,7.29
2023-04-12T06:49:52.763Z,7.29
2023-04-12T06:51:39.923Z,7.46
2023-04-12T06:54:06.292Z,7.79
2023-04-12T06:54:52.045Z,7.79
2023-04-12T06:56:32.747Z,7.55
2023-04-12T06:58:59.400Z,8.02
2023-04-12T06:59:52.024Z,8.02
2023-04-12T07:01:26.073Z,7.51
2023-04-12T07:03:52.637Z,8.07
2023-04-12T07:04:52.023Z,8.07
2023-04-12T07:06:25.570Z,8.12
2023-04-12T07:08:52.970Z,7.29
2023-04-12T07:09:52.040Z,7.29
2023-04-12T07:11:21.771Z,8.30
2023-04-12T07:13:49.689Z,8.28
2023-04-12T07:14:52.021Z,8.28
2023-04-12T07:16:17.003Z,8.11
2023-04-12T07:18:45.940Z,7.89
2023-04-12T07:19:52.039Z,7.89
2023-04-12T07:21:17.407Z,8.14
2023-04-12T07:23:44.295Z,7.79
2023-04-12T07:24:52.031Z,7.79
2023-04-12T07:26:10.799Z,7.74
2023-04-12T07:28:38.070Z,8.03
2023-04-12T07:29:52.093Z,8.03
2023-04-12T07:31:07.654Z,8.24
2023-04-12T07:33:35.976Z,8.36
2023-04-12T07:34:52.009Z,8.36
2023-04-12T07:36:03.139Z,8.08
2023-04-12T07:38:29.655Z,8.07
2023-04-12T07:39:52.068Z,8.07
2023-04-12T07:40:56.658Z,8.41
2023-04-12T07:43:23.194Z,8.49
2023-04-12T07:44:52.037Z,8.49
2023-04-12T07:45:49.926Z,8.23
2023-04-12T07:48:16.426Z,8.83
2023-04-12T07:49:52.023Z,8.83
2023-04-12T07:50:42.824Z,8.79
2023-04-12T07:53:23.679Z,8.85
2023-04-12T07:54:52.052Z,8.85
2023-04-12T07:55:51.022Z,8.83
2023-04-12T07:58:18.525Z,8.89
2023-04-12T07:59:52.047Z,8.89
2023-04-12T08:00:46.589Z,8.85
2023-04-12T08:03:14.343Z,8.77
2023-04-12T08:04:52.029Z,8.77
2023-04-12T08:05:41.178Z,8.70
2023-04-12T08:08:10.047Z,9.11
2023-04-12T08:09:52.033Z,9.11
2023-04-12T08:10:37.248Z,9.12
2023-04-12T08:13:05.136Z,8.97
2023-04-12T08:14:52.052Z,8.97
2023-04-12T08:15:32.845Z,8.83
2023-04-12T08:18:01.855Z,9.29
2023-04-12T08:19:52.025Z,9.29
2023-04-12T08:20:28.304Z,9.48
2023-04-12T08:22:54.933Z,9.43
2023-04-12T08:24:52.053Z,9.43
2023-04-12T08:25:22.224Z,9.61
2023-04-12T08:27:50.232Z,9.52
2023-04-12T08:29:52.059Z,9.52
2023-04-12T08:30:17.346Z,9.97
2023-04-12T08:32:43.969Z,9.51
2023-04-12T08:34:52.025Z,9.51
2023-04-12T08:35:11.095Z,9.77
2023-04-12T08:37:37.574Z,9.73
2023-04-12T08:39:52.040Z,9.73
2023-04-12T08:40:06.922Z,9.74
2023-04-12T08:42:37.588Z,9.35
2023-04-12T08:44:52.044Z,9.35
2023-04-12T08:45:08.083Z,9.49
2023-04-12T08:47:37.913Z,9.67
2023-04-12T08:49:52.041Z,9.67
2023-04-12T08:50:08.269Z,9.79
2023-04-12T08:52:35.997Z,9.83
2023-04-12T08:54:52.090Z,9.83
2023-04-12T08:55:07.432Z,9.86
2023-04-12T08:57:36.033Z,9.80
2023-04-12T08:59:52.009Z,9.80
2023-04-12T09:00:04.013Z,9.83
2023-04-12T09:02:31.464Z,9.48
2023-04-12T09:04:52.324Z,9.48
2023-04-12T09:05:00.835Z,9.98
2023-04-12T09:07:28.752Z,9.75
2023-04-12T09:09:52.036Z,9.75
2023-04-12T09:09:57.548Z,10.03
2023-04-12T09:12:24.551Z,9.85
2023-04-12T09:15:13.434Z,10.17
2023-04-12T09:15:13.951Z,10.17
2023-04-12T09:17:42.027Z,10.24
2023-04-12T09:19:52.065Z,10.24
2023-04-12T09:20:17.470Z,10.18
2023-04-12T09:22:45.251Z,10.32
2023-04-12T09:24:52.065Z,10.32
2023-04-12T09:25:13.064Z,10.55
2023-04-12T09:27:49.428Z,10.70
2023-04-12T09:29:52.011Z,10.70
2023-04-12T09:30:20.605Z,10.71
2023-04-12T09:32:50.712Z,10.62
2023-04-12T09:34:52.045Z,10.62
2023-04-12T09:35:17.167Z,10.52
2023-04-12T09:37:43.531Z,10.35
2023-04-12T09:39:52.065Z,10.35
2023-04-12T09:40:10.874Z,10.36
2023-04-12T09:42:53.281Z,10.17
2023-04-12T09:44:52.062Z,10.17
2023-04-12T09:45:22.360Z,10.44
2023-04-12T09:47:49.460Z,10.24
2023-04-12T09:49:52.048Z,10.24
2023-04-12T09:50:27.263Z,10.22
2023-04-12T09:52:57.985Z,9.85
2023-04-12T09:54:52.041Z,9.85
2023-04-12T09:55:26.377Z,10.04
2023-04-12T09:57:54.067Z,9.87
2023-04-12T09:59:52.052Z,9.87
2023-04-12T10:00:25.338Z,10.11
2023-04-12T10:02:53.481Z,10.10
2023-04-12T10:04:52.241Z,10.10
2023-04-12T10:05:23.102Z,9.62
2023-04-12T10:07:50.301Z,10.03
2023-04-12T10:09:52.091Z,10.03
2023-04-12T10:10:18.407Z,10.31
2023-04-12T10:12:46.846Z,10.55
2023-04-12T10:14:52.057Z,10.55
2023-04-12T10:15:17.553Z,10.82
2023-04-12T10:17:47.012Z,10.93
2023-04-12T10:19:52.087Z,10.93
2023-04-12T10:20:15.272Z,10.86
2023-04-12T10:22:46.467Z,10.83
2023-04-12T10:24:52.095Z,10.83
2023-04-12T10:25:18.470Z,10.31
2023-04-12T10:27:46.466Z,10.14
2023-04-12T10:29:53.113Z,10.14
2023-04-12T10:30:23.488Z,10.17
2023-04-12T10:33:05.208Z,10.26
2023-04-12T10:34:52.029Z,10.26
2023-04-12T10:36:06.576Z,10.35
2023-04-12T10:38:48.006Z,10.17
2023-04-12T10:39:52.069Z,10.17
2023-04-12T10:41:20.524Z,10.82
2023-04-12T10:43:51.686Z,10.70
2023-04-12T10:44:52.081Z,10.70
2023-04-12T10:46:40.197Z,10.52
2023-04-12T10:49:09.893Z,10.37
2023-04-12T10:49:52.048Z,10.37
2023-04-12T10:51:36.567Z,10.26
2023-04-12T10:54:08.880Z,10.44
2023-04-12T10:54:52.057Z,10.44
2023-04-12T10:56:40.448Z,10.43
2023-04-12T10:59:10.231Z,10.41
2023-04-12T10:59:52.048Z,10.41
2023-04-12T11:01:39.276Z,10.46
2023-04-12T11:04:14.514Z,10.38
2023-04-12T11:04:52.212Z,10.38
2023-04-12T11:06:50.559Z,10.83
2023-04-12T11:09:18.577Z,10.96
2023-04-12T11:09:52.054Z,10.96
2023-04-12T11:11:45.315Z,11.13
2023-04-12T11:14:12.612Z,11.06
2023-04-12T11:14:52.124Z,11.06
2023-04-12T11:17:07.179Z,11.05
2023-04-12T11:19:53.885Z,11.24
2023-04-12T11:19:54.042Z,11.24
2023-04-12T11:22:22.231Z,10.75
2023-04-12T11:24:51.372Z,11.20
2023-04-12T11:24:52.109Z,11.20
2023-04-12T11:27:20.543Z,11.13
2023-04-12T11:29:56.219Z,11.00
2023-04-12T11:29:56.378Z,11.00
2023-04-12T11:32:24.972Z,11.09
2023-04-12T11:34:51.655Z,11.63
2023-04-12T11:34:52.041Z,11.63
2023-04-12T11:37:20.134Z,11.80
2023-04-12T11:39:47.500Z,12.23
2023-04-12T11:39:52.046Z,12.23
2023-04-12T11:42:24.574Z,11.76
2023-04-12T11:44:58.055Z,11.72
2023-04-12T11:45:04.464Z,11.72
2023-04-12T11:47:26.101Z,11.93
2023-04-12T11:49:57.407Z,11.75
2023-04-12T11:49:57.546Z,11.75
2023-04-12T11:52:32.426Z,11.69
2023-04-12T11:54:52.060Z,11.69
2023-04-12T11:55:06.430Z,11.88
2023-04-12T11:57:35.496Z,11.99
2023-04-12T11:59:52.062Z,11.99
2023-04-12T12:00:05.901Z,12.02
2023-04-12T12:02:38.757Z,12.22
2023-04-12T12:04:52.516Z,12.22
2023-04-12T12:05:11.167Z,12.59
2023-04-12T12:07:38.099Z,12.45
2023-04-12T12:09:52.068Z,12.45
2023-04-12T12:10:06.104Z,12.62
2023-04-12T12:12:33.922Z,12.18
2023-04-12T12:14:52.061Z,12.18
2023-04-12T12:15:01.648Z,12.08
2023-04-12T12:17:28.798Z,12.82
2023-04-12T12:19:52.051Z,12.82
2023-04-12T12:19:58.877Z,12.94
2023-04-12T12:22:25.595Z,12.82
2023-04-12T12:25:01.177Z,12.65
2023-04-12T12:25:01.392Z,12.65
2023-04-12T12:27:30.566Z,13.07
2023-04-12T12:29:52.068Z,13.07
2023-04-12T12:30:01.642Z,13.07
2023-04-12T12:32:35.710Z,13.26
2023-04-12T12:34:52.066Z,13.26
2023-04-12T12:35:03.295Z,13.83
2023-04-12T12:37:30.828Z,14.01
2023-04-12T12:39:52.057Z,14.01
2023-04-12T12:40:13.644Z,13.72
2023-04-12T12:42:48.698Z,13.85
2023-04-12T12:44:52.031Z,13.85
2023-04-12T12:45:16.634Z,13.88
2023-04-12T12:48:02.399Z,14.07
2023-04-12T12:49:52.053Z,14.07
2023-04-12T12:50:31.620Z,14.56
2023-04-12T12:53:00.458Z,13.80
2023-04-12T12:54:52.074Z,13.80
2023-04-12T12:55:28.023Z,14.12
2023-04-12T12:58:07.666Z,14.16
2023-04-12T12:59:52.067Z,14.16
2023-04-12T13:00:35.370Z,13.81
2023-04-12T13:03:02.265Z,13.98
2023-04-12T13:04:52.144Z,13.98
2023-04-12T13:05:29.229Z,14.10
2023-04-12T13:07:55.614Z,14.64
2023-04-12T13:09:52.063Z,14.64
2023-04-12T13:10:22.090Z,15.07
2023-04-12T13:12:48.423Z,14.80
2023-04-12T13:14:54.463Z,14.80
2023-04-12T13:15:22.451Z,14.34
2023-04-12T13:17:51.884Z,14.51
2023-04-12T13:19:52.040Z,14.51
2023-04-12T13:20:18.448Z,13.70
2023-04-12T13:22:44.848Z,13.43
2023-04-12T13:24:52.142Z,13.43
2023-04-12T13:25:11.485Z,13.55
2023-04-12T13:27:37.977Z,13.48
2023-04-12T13:29:52.033Z,13.48
2023-04-12T13:30:05.355Z,13.47
2023-04-12T13:32:31.871Z,12.12
2023-04-12T13:34:52.100Z,12.12
2023-04-12T13:34:58.333Z,13.32
2023-04-12T13:37:24.763Z,13.38
2023-04-12T13:39:51.451Z,13.25
2023-04-12T13:39:52.053Z,13.25
2023-04-12T13:42:17.899Z,12.82
2023-04-12T13:44:44.325Z,12.79
2023-04-12T13:44:52.085Z,12.79
2023-04-12T13:47:11.111Z,12.75
2023-04-12T13:49:37.637Z,12.90
2023-04-12T13:49:52.048Z,12.90
2023-04-12T13:52:04.044Z,12.17
2023-04-12T13:54:30.742Z,12.81
2023-04-12T13:54:52.048Z,12.81
2023-04-12T13:56:58.098Z,12.28
2023-04-12T13:59:26.059Z,12.56
2023-04-12T13:59:52.055Z,12.56
2023-04-12T14:01:52.974Z,12.14
2023-04-12T14:04:19.886Z,12.13
2023-04-12T14:04:52.150Z,12.13
2023-04-12T14:06:46.444Z,11.14
2023-04-12T14:09:30.252Z,11.04
2023-04-12T14:09:52.081Z,11.04
2023-04-12T14:11:58.020Z,10.48
2023-04-12T14:14:26.068Z,10.54
2023-04-12T14:14:52.088Z,10.54
2023-04-12T14:16:54.766Z,10.07
2023-04-12T14:19:21.806Z,10.09
2023-04-12T14:19:52.041Z,10.09
2023-04-12T14:21:48.730Z,9.59
2023-04-12T14:24:16.220Z,9.30
2023-04-12T14:24:52.089Z,9.30
2023-04-12T14:26:42.753Z,10.03
2023-04-12T14:29:09.783Z,10.70
2023-04-12T14:29:52.050Z,10.70
2023-04-12T14:31:36.563Z,10.20
2023-04-12T14:34:08.502Z,10.81
2023-04-12T14:34:52.172Z,10.81
2023-04-12T14:36:34.885Z,11.72
2023-04-12T14:39:04.082Z,11.85
2023-04-12T14:39:52.048Z,11.85
2023-04-12T14:41:31.458Z,12.10
2023-04-12T14:44:00.855Z,11.94
2023-04-12T14:44:52.032Z,11.94
2023-04-12T14:46:28.298Z,11.95
2023-04-12T14:48:55.529Z,11.07
2023-04-12T14:49:52.074Z,11.07
2023-04-12T14:51:22.317Z,11.10
2023-04-12T14:53:49.772Z,11.22
2023-04-12T14:54:52.056Z,11.22
2023-04-12T14:56:25.367Z,11.82
2023-04-12T14:58:54.634Z,12.12
2023-04-12T14:59:52.078Z,12.12
2023-04-12T15:01:25.423Z,12.54
2023-04-12T15:03:55.518Z,11.66
2023-04-12T15:04:52.139Z,11.66
2023-04-12T15:06:23.472Z,11.67
2023-04-12T15:08:57.137Z,11.64
2023-04-12T15:09:52.070Z,11.64
2023-04-12T15:11:26.215Z,11.58
2023-04-12T15:13:53.463Z,11.35
2023-04-12T15:14:52.102Z,11.35
2023-04-12T15:16:19.939Z,11.17
2023-04-12T15:18:46.400Z,10.69
2023-04-12T15:19:52.088Z,10.69
2023-04-12T15:21:12.857Z,11.01
2023-04-12T15:23:41.425Z,10.92
2023-04-12T15:24:52.062Z,10.92
2023-04-12T15:26:09.251Z,10.97
2023-04-12T15:28:36.161Z,11.05
2023-04-12T15:29:52.134Z,11.05
2023-04-12T15:31:03.044Z,10.98
2023-04-12T15:33:30.223Z,11.00
2023-04-12T15:34:52.029Z,11.00
2023-04-12T15:35:56.743Z,11.05
2023-04-12T15:38:26.250Z,10.87
2023-04-12T15:39:52.072Z,10.87
2023-04-12T15:40:59.807Z,11.16
2023-04-12T15:43:27.360Z,10.97
2023-04-12T15:44:52.086Z,10.97
2023-04-12T15:45:54.843Z,10.63
2023-04-12T15:48:22.971Z,9.97
2023-04-12T15:49:52.088Z,9.97
2023-04-12T15:50:54.191Z,9.77
2023-04-12T15:53:22.386Z,10.24
2023-04-12T15:54:52.060Z,10.24
2023-04-12T15:55:49.041Z,10.81
2023-04-12T15:58:15.413Z,10.98
2023-04-12T15:59:52.068Z,10.98
2023-04-12T16:00:42.326Z,11.27
2023-04-12T16:03:09.237Z,10.82
2023-04-12T16:04:52.229Z,10.82
2023-04-12T16:05:36.077Z,10.36
2023-04-12T16:08:03.200Z,10.69
2023-04-12T16:09:52.053Z,10.69
2023-04-12T16:10:32.017Z,10.71
2023-04-12T16:12:59.489Z,10.50
2023-04-12T16:14:52.063Z,10.50
2023-04-12T16:15:28.349Z,10.42
2023-04-12T16:17:57.167Z,10.37
2023-04-12T16:19:52.063Z,10.37
2023-04-12T16:20:23.953Z,10.34
2023-04-12T16:22:55.049Z,10.33
2023-04-12T16:24:52.122Z,10.33
2023-04-12T16:25:22.760Z,10.32
2023-04-12T16:27:49.246Z,10.09
2023-04-12T16:29:52.065Z,10.09
2023-04-12T16:30:15.989Z,10.62
2023-04-12T16:32:46.668Z,10.77
2023-04-12T16:34:52.089Z,10.77
2023-04-12T16:35:14.901Z,10.95
2023-04-12T16:37:42.632Z,10.40
2023-04-12T16:39:52.071Z,10.40
2023-04-12T16:40:12.660Z,10.77
2023-04-12T16:42:43.893Z,10.76
2023-04-12T16:44:52.084Z,10.76
2023-04-12T16:45:11.874Z,11.18
2023-04-12T16:47:39.421Z,11.56
2023-04-12T16:49:52.059Z,11.56
2023-04-12T16:50:09.263Z,10.54
2023-04-12T16:52:36.749Z,11.36
2023-04-12T16:54:52.095Z,11.36
2023-04-12T16:55:06.715Z,11.26
2023-04-12T16:57:33.127Z,11.28
2023-04-12T16:59:52.075Z,11.28
2023-04-12T16:59:59.674Z,11.02
2023-04-12T17:02:26.860Z,11.20
2023-04-12T17:04:52.090Z,11.20
2023-04-12T17:04:53.421Z,11.17
2023-04-12T17:07:19.952Z,11.16
2023-04-12T17:09:46.343Z,11.07
2023-04-12T17:09:52.060Z,11.07
2023-04-12T17:12:13.006Z,10.85
2023-04-12T17:14:39.479Z,10.92
2023-04-12T17:14:52.067Z,10.92
2023-04-12T17:17:06.502Z,10.75
2023-04-12T17:19:33.417Z,10.42
2023-04-12T17:19:52.097Z,10.42
2023-04-12T17:21:59.737Z,10.58
2023-04-12T17:24:26.441Z,9.95
2023-04-12T17:24:52.056Z,9.95
2023-04-12T17:26:53.266Z,10.36
2023-04-12T17:29:20.363Z,10.11
2023-04-12T17:29:52.072Z,10.11
2023-04-12T17:31:49.703Z,10.28
2023-04-12T17:34:18.480Z,10.03
2023-04-12T17:34:52.036Z,10.03
2023-04-12T17:36:44.936Z,10.29
2023-04-12T17:39:11.394Z,10.20
2023-04-12T17:39:52.070Z,10.20
2023-04-12T17:41:38.174Z,10.22
2023-04-12T17:44:05.149Z,10.17
2023-04-12T17:44:52.052Z,10.17
2023-04-12T17:46:31.758Z,10.10
2023-04-12T17:48:59.772Z,9.77
2023-04-12T17:49:52.109Z,9.77
2023-04-12T17:51:26.733Z,10.01
2023-04-12T17:53:58.110Z,9.60
2023-04-12T17:54:52.065Z,9.60
2023-04-12T17:56:25.923Z,9.80
2023-04-12T17:58:52.304Z,9.62
2023-04-12T17:59:52.052Z,9.62
2023-04-12T18:01:18.764Z,9.44
2023-04-12T18:03:45.394Z,9.37
2023-04-12T18:04:52.099Z,9.37
2023-04-12T18:06:13.797Z,9.21
2023-04-12T18:08:40.225Z,9.01
2023-04-12T18:09:52.078Z,9.01
2023-04-12T18:11:07.806Z,8.97
2023-04-12T18:13:34.267Z,9.04
2023-04-12T18:14:52.066Z,9.04
2023-04-12T18:16:01.167Z,8.88
2023-04-12T18:18:27.615Z,8.75
2023-04-12T18:19:52.116Z,8.75
2023-04-12T18:20:54.191Z,8.50
2023-04-12T18:23:21.388Z,8.67
2023-04-12T18:24:52.087Z,8.67
2023-04-12T18:25:47.857Z,8.66
2023-04-12T18:28:14.786Z,8.57
2023-04-12T18:29:52.216Z,8.57
2023-04-12T18:30:41.114Z,8.53
2023-04-12T18:34:52.061Z,8.47
2023-04-12T18:35:34.303Z,8.44
2023-04-12T18:38:00.978Z,8.43
2023-04-12T18:39:53.293Z,8.43
2023-04-12T18:40:27.361Z,8.42
2023-04-12T18:42:53.706Z,8.42
2023-04-12T18:44:52.120Z,8.42
2023-04-12T18:45:20.249Z,8.10
2023-04-12T18:47:46.713Z,8.37
2023-04-12T18:49:52.064Z,8.37
2023-04-12T18:50:14.398Z,8.44
2023-04-12T18:52:40.968Z,8.15
2023-04-12T18:54:52.088Z,8.15
2023-04-12T18:55:08.024Z,8.48
2023-04-12T18:57:34.379Z,8.58
2023-04-12T18:59:52.097Z,8.58
2023-04-12T19:00:00.972Z,8.61
2023-04-12T19:02:28.321Z,8.63
2023-04-12T19:04:52.072Z,8.63
2023-04-12T19:04:55.050Z,8.70
2023-04-12T19:07:21.420Z,8.50
2023-04-12T19:09:47.742Z,7.59
2023-04-12T19:09:52.106Z,7.59
2023-04-12T19:12:14.119Z,7.17
2023-04-12T19:14:40.511Z,6.68
2023-04-12T19:14:52.080Z,6.68
2023-04-12T19:17:07.944Z,6.41
2023-04-12T19:19:34.384Z,6.23
2023-04-12T19:19:52.098Z,6.23
2023-04-12T19:22:00.788Z,6.07
2023-04-12T19:24:27.286Z,6.01
2023-04-12T19:24:52.061Z,6.01
2023-04-12T19:26:53.630Z,5.94
2023-04-12T19:29:20.970Z,5.66
2023-04-12T19:29:52.123Z,5.66
2023-04-12T19:31:48.944Z,5.85
2023-04-12T19:34:17.743Z,6.06
2023-04-12T19:34:52.071Z,6.06
2023-04-12T19:36:44.644Z,5.91
2023-04-12T19:39:11.197Z,5.67
2023-04-12T19:39:52.076Z,5.67
2023-04-12T19:41:37.558Z,5.18
2023-04-12T19:44:03.929Z,5.45
2023-04-12T19:44:52.060Z,5.45
2023-04-12T19:46:30.559Z,5.30
2023-04-12T19:48:58.196Z,5.36
2023-04-12T19:49:52.072Z,5.36
2023-04-12T19:51:25.505Z,5.24
2023-04-12T19:53:53.190Z,5.20
2023-04-12T19:54:52.106Z,5.20
2023-04-12T19:56:20.216Z,5.20
2023-04-12T19:58:46.532Z,5.17
2023-04-12T19:59:52.078Z,5.17
2023-04-12T20:01:13.656Z,5.21
2023-04-12T20:03:43.489Z,5.20
2023-04-12T20:04:52.090Z,5.20
2023-04-12T20:06:10.840Z,5.21
2023-04-12T20:08:37.846Z,4.51
2023-04-12T20:09:52.070Z,4.51
2023-04-12T20:11:04.766Z,5.19
2023-04-12T20:13:31.407Z,5.16
2023-04-12T20:14:52.109Z,5.16
2023-04-12T20:16:00.639Z,5.08
2023-04-12T20:18:27.440Z,5.05
2023-04-12T20:19:53.616Z,5.05
2023-04-12T20:20:57.603Z,5.35
2023-04-12T20:23:25.439Z,5.43
2023-04-12T20:24:52.090Z,5.43
2023-04-12T20:25:51.841Z,5.53
2023-04-12T20:28:18.468Z,5.58
2023-04-12T20:29:52.102Z,5.58
2023-04-12T20:30:47.902Z,5.50
2023-04-12T20:33:15.004Z,5.46
2023-04-12T20:34:52.060Z,5.46
2023-04-12T20:35:42.436Z,4.34
2023-04-12T20:38:08.893Z,5.11
2023-04-12T20:39:52.085Z,5.11
2023-04-12T20:40:35.684Z,5.47
2023-04-12T20:43:02.084Z,5.30
2023-04-12T20:44:52.083Z,5.30
2023-04-12T20:45:28.753Z,5.24
2023-04-12T20:47:55.179Z,5.16
2023-04-12T20:49:52.088Z,5.16
2023-04-12T20:50:22.373Z,5.07
2023-04-12T20:52:49.818Z,5.09
2023-04-12T20:54:52.142Z,5.09
2023-04-12T20:55:16.205Z,5.06
2023-04-12T20:57:43.680Z,4.82
2023-04-12T20:59:52.181Z,4.82
2023-04-12T21:00:23.698Z,5.01
2023-04-12T21:04:52.198Z,4.96
2023-04-12T21:05:35.597Z,4.88
2023-04-12T21:08:02.234Z,4.82
2023-04-12T21:09:52.191Z,4.82
2023-04-12T21:10:28.631Z,4.83
2023-04-12T21:12:55.154Z,4.93
2023-04-12T21:14:52.236Z,4.93
2023-04-12T21:15:22.144Z,5.05
2023-04-12T21:17:50.532Z,5.47
2023-04-12T21:19:52.254Z,5.47
2023-04-12T21:20:16.980Z,5.76
2023-04-12T21:22:48.015Z,6.03
2023-04-12T21:24:52.255Z,6.03
2023-04-12T21:25:16.292Z,6.18
2023-04-12T21:27:43.570Z,6.26
2023-04-12T21:29:52.260Z,6.26
2023-04-12T21:30:11.142Z,5.95
2023-04-12T21:32:38.125Z,6.40
2023-04-12T21:34:52.231Z,6.40
2023-04-12T21:35:08.665Z,6.02
2023-04-12T21:37:38.780Z,6.26
2023-04-12T21:39:52.223Z,6.26
2023-04-12T21:40:09.937Z,6.45
2023-04-12T21:42:37.364Z,6.19
2023-04-12T21:44:52.221Z,6.19
2023-04-12T21:45:04.458Z,6.05
2023-04-12T21:47:34.189Z,6.08
2023-04-12T21:49:52.223Z,6.08
2023-04-12T21:50:00.613Z,6.19